sensor_id;sensor_type;location;lat;lon;timestamp;temperature;humidity
63047;DHT22;62025;39.238;9.126;2023-11-21T00:01:42;16.80;75.90
63047;DHT22;62025;39.238;9.126;2023-11-21T00:04:08;16.80;75.80
63047;DHT22;62025;39.238;9.126;2023-11-21T00:06:34;16.90;75.80
63047;DHT22;62025;39.238;9.126;2023-11-21T00:09:00;16.90;75.90
63047;DHT22;62025;39.238;9.126;2023-11-21T00:11:26;16.90;75.90
63047;DHT22;62025;39.238;9.126;2023-11-21T00:13:52;16.90;75.90
63047;DHT22;62025;39.238;9.126;2023-11-21T00:16:18;16.90;75.80
63047;DHT22;62025;39.238;9.126;2023-11-21T00:18:44;16.80;75.70
63047;DHT22;62025;39.238;9.126;2023-11-21T00:21:12;16.80;75.80
63047;DHT22;62025;39.238;9.126;2023-11-21T00:23:38;16.90;75.60
63047;DHT22;62025;39.238;9.126;2023-11-21T00:26:04;16.90;75.70
63047;DHT22;62025;39.238;9.126;2023-11-21T00:28:30;16.90;75.80
63047;DHT22;62025;39.238;9.126;2023-11-21T00:30:55;16.90;76.00
63047;DHT22;62025;39.238;9.126;2023-11-21T00:33:21;16.80;76.10
63047;DHT22;62025;39.238;9.126;2023-11-21T00:35:47;16.80;76.10
63047;DHT22;62025;39.238;9.126;2023-11-21T00:38:13;16.90;76.10
63047;DHT22;62025;39.238;9.126;2023-11-21T00:40:39;16.90;76.00
63047;DHT22;62025;39.238;9.126;2023-11-21T00:43:05;16.90;76.20
63047;DHT22;62025;39.238;9.126;2023-11-21T00:45:31;16.90;76.20
63047;DHT22;62025;39.238;9.126;2023-11-21T00:47:56;16.90;76.10
63047;DHT22;62025;39.238;9.126;2023-11-21T00:50:23;16.90;76.00
63047;DHT22;62025;39.238;9.126;2023-11-21T00:52:49;16.90;75.80
63047;DHT22;62025;39.238;9.126;2023-11-21T00:55:17;16.90;75.50
63047;DHT22;62025;39.238;9.126;2023-11-21T00:57:43;16.90;75.30
63047;DHT22;62025;39.238;9.126;2023-11-21T01:00:10;16.90;75.30
63047;DHT22;62025;39.238;9.126;2023-11-21T01:02:46;16.90;75.20
63047;DHT22;62025;39.238;9.126;2023-11-21T01:05:14;16.90;75.00
63047;DHT22;62025;39.238;9.126;2023-11-21T01:07:39;16.80;75.10
63047;DHT22;62025;39.238;9.126;2023-11-21T01:10:06;16.80;74.90
63047;DHT22;62025;39.238;9.126;2023-11-21T01:12:37;16.80;74.70
63047;DHT22;62025;39.238;9.126;2023-11-21T01:15:05;16.80;74.50
63047;DHT22;62025;39.238;9.126;2023-11-21T01:17:34;16.80;74.50
63047;DHT22;62025;39.238;9.126;2023-11-21T01:20:01;16.90;74.50
63047;DHT22;62025;39.238;9.126;2023-11-21T01:22:28;16.80;74.40
63047;DHT22;62025;39.238;9.126;2023-11-21T01:24:54;16.80;74.30
63047;DHT22;62025;39.238;9.126;2023-11-21T01:27:20;16.80;74.50
63047;DHT22;62025;39.238;9.126;2023-11-21T01:29:46;16.80;74.50
63047;DHT22;62025;39.238;9.126;2023-11-21T01:32:12;16.80;74.40
63047;DHT22;62025;39.238;9.126;2023-11-21T01:34:38;16.80;74.50
63047;DHT22;62025;39.238;9.126;2023-11-21T01:37:05;16.90;74.50
63047;DHT22;62025;39.238;9.126;2023-11-21T01:39:31;16.80;74.50
63047;DHT22;62025;39.238;9.126;2023-11-21T01:41:57;16.90;74.40
63047;DHT22;62025;39.238;9.126;2023-11-21T01:44:26;16.90;74.30
63047;DHT22;62025;39.238;9.126;2023-11-21T01:46:52;16.80;74.30
63047;DHT22;62025;39.238;9.126;2023-11-21T01:49:19;16.80;74.40
63047;DHT22;62025;39.238;9.126;2023-11-21T01:51:48;16.80;74.50
63047;DHT22;62025;39.238;9.126;2023-11-21T01:54:19;16.80;74.60
63047;DHT22;62025;39.238;9.126;2023-11-21T01:56:46;16.80;74.50
63047;DHT22;62025;39.238;9.126;2023-11-21T01:59:18;16.80;74.40
63047;DHT22;62025;39.238;9.126;2023-11-21T02:01:45;16.80;74.30
63047;DHT22;62025;39.238;9.126;2023-11-21T02:04:13;16.70;74.30
63047;DHT22;62025;39.238;9.126;2023-11-21T02:06:39;16.70;74.20
63047;DHT22;62025;39.238;9.126;2023-11-21T02:09:05;16.70;74.10
63047;DHT22;62025;39.238;9.126;2023-11-21T02:11:31;16.70;74.20
63047;DHT22;62025;39.238;9.126;2023-11-21T02:13:59;16.60;74.10
63047;DHT22;62025;39.238;9.126;2023-11-21T02:16:26;16.60;74.30
63047;DHT22;62025;39.238;9.126;2023-11-21T02:18:53;16.60;74.40
63047;DHT22;62025;39.238;9.126;2023-11-21T02:21:19;16.60;74.10
63047;DHT22;62025;39.238;9.126;2023-11-21T02:23:45;16.60;73.90
63047;DHT22;62025;39.238;9.126;2023-11-21T02:26:13;16.60;73.90
63047;DHT22;62025;39.238;9.126;2023-11-21T02:28:40;16.60;73.90
63047;DHT22;62025;39.238;9.126;2023-11-21T02:31:06;16.50;74.00
63047;DHT22;62025;39.238;9.126;2023-11-21T02:33:33;16.50;74.10
63047;DHT22;62025;39.238;9.126;2023-11-21T02:36:00;16.40;74.40
63047;DHT22;62025;39.238;9.126;2023-11-21T02:38:26;16.40;74.30
63047;DHT22;62025;39.238;9.126;2023-11-21T02:40:52;16.40;74.30
63047;DHT22;62025;39.238;9.126;2023-11-21T02:43:19;16.40;74.50
63047;DHT22;62025;39.238;9.126;2023-11-21T02:45:45;16.40;74.50
63047;DHT22;62025;39.238;9.126;2023-11-21T02:48:12;16.50;74.40
63047;DHT22;62025;39.238;9.126;2023-11-21T02:50:38;16.50;74.40
63047;DHT22;62025;39.238;9.126;2023-11-21T02:53:04;16.60;74.30
63047;DHT22;62025;39.238;9.126;2023-11-21T02:55:31;16.50;74.20
63047;DHT22;62025;39.238;9.126;2023-11-21T02:58:00;16.40;74.40
63047;DHT22;62025;39.238;9.126;2023-11-21T03:00:27;16.50;74.30
63047;DHT22;62025;39.238;9.126;2023-11-21T03:02:55;16.40;74.50
63047;DHT22;62025;39.238;9.126;2023-11-21T03:05:21;16.30;74.80
63047;DHT22;62025;39.238;9.126;2023-11-21T03:07:47;16.30;74.90
63047;DHT22;62025;39.238;9.126;2023-11-21T03:10:13;16.40;74.80
63047;DHT22;62025;39.238;9.126;2023-11-21T03:12:40;16.40;74.90
63047;DHT22;62025;39.238;9.126;2023-11-21T03:15:06;16.40;74.80
63047;DHT22;62025;39.238;9.126;2023-11-21T03:17:33;16.40;74.80
63047;DHT22;62025;39.238;9.126;2023-11-21T03:20:03;16.40;74.60
63047;DHT22;62025;39.238;9.126;2023-11-21T03:22:29;16.30;74.90
63047;DHT22;62025;39.238;9.126;2023-11-21T03:24:55;16.20;75.10
63047;DHT22;62025;39.238;9.126;2023-11-21T03:27:21;16.20;75.40
63047;DHT22;62025;39.238;9.126;2023-11-21T03:29:48;16.30;75.40
63047;DHT22;62025;39.238;9.126;2023-11-21T03:32:16;16.20;75.60
63047;DHT22;62025;39.238;9.126;2023-11-21T03:34:56;16.20;75.90
63047;DHT22;62025;39.238;9.126;2023-11-21T03:37:23;16.20;76.10
63047;DHT22;62025;39.238;9.126;2023-11-21T03:39:49;16.10;76.20
63047;DHT22;62025;39.238;9.126;2023-11-21T03:42:15;16.10;76.40
63047;DHT22;62025;39.238;9.126;2023-11-21T03:44:41;16.10;76.50
63047;DHT22;62025;39.238;9.126;2023-11-21T03:47:07;16.10;76.60
63047;DHT22;62025;39.238;9.126;2023-11-21T03:49:33;16.10;76.70
63047;DHT22;62025;39.238;9.126;2023-11-21T03:51:59;16.10;76.70
63047;DHT22;62025;39.238;9.126;2023-11-21T03:54:25;16.10;76.70
63047;DHT22;62025;39.238;9.126;2023-11-21T03:56:50;16.20;76.60
63047;DHT22;62025;39.238;9.126;2023-11-21T03:59:17;16.20;76.50
63047;DHT22;62025;39.238;9.126;2023-11-21T04:01:43;16.20;76.40
63047;DHT22;62025;39.238;9.126;2023-11-21T04:04:09;16.20;76.40
63047;DHT22;62025;39.238;9.126;2023-11-21T04:06:35;16.30;76.50
63047;DHT22;62025;39.238;9.126;2023-11-21T04:09:01;16.20;76.50
63047;DHT22;62025;39.238;9.126;2023-11-21T04:11:30;16.20;76.40
63047;DHT22;62025;39.238;9.126;2023-11-21T04:13:55;16.10;76.50
63047;DHT22;62025;39.238;9.126;2023-11-21T04:16:21;16.00;76.70
63047;DHT22;62025;39.238;9.126;2023-11-21T04:18:47;16.10;76.60
63047;DHT22;62025;39.238;9.126;2023-11-21T04:21:13;16.00;76.60
63047;DHT22;62025;39.238;9.126;2023-11-21T04:23:39;16.00;76.60
63047;DHT22;62025;39.238;9.126;2023-11-21T04:26:06;16.00;76.70
63047;DHT22;62025;39.238;9.126;2023-11-21T04:28:32;16.00;76.80
63047;DHT22;62025;39.238;9.126;2023-11-21T04:30:58;16.00;76.90
63047;DHT22;62025;39.238;9.126;2023-11-21T04:33:23;16.00;76.90
63047;DHT22;62025;39.238;9.126;2023-11-21T04:35:51;16.10;76.70
63047;DHT22;62025;39.238;9.126;2023-11-21T04:38:17;16.10;76.90
63047;DHT22;62025;39.238;9.126;2023-11-21T04:40:44;16.10;76.80
63047;DHT22;62025;39.238;9.126;2023-11-21T04:43:10;16.10;76.70
63047;DHT22;62025;39.238;9.126;2023-11-21T04:45:36;16.10;76.70
63047;DHT22;62025;39.238;9.126;2023-11-21T04:48:02;16.10;76.70
63047;DHT22;62025;39.238;9.126;2023-11-21T04:50:28;16.20;76.70
63047;DHT22;62025;39.238;9.126;2023-11-21T04:52:53;16.20;76.50
63047;DHT22;62025;39.238;9.126;2023-11-21T04:55:19;16.20;76.40
63047;DHT22;62025;39.238;9.126;2023-11-21T04:57:45;16.20;76.50
63047;DHT22;62025;39.238;9.126;2023-11-21T05:00:12;16.20;76.60
63047;DHT22;62025;39.238;9.126;2023-11-21T05:02:40;16.10;76.80
63047;DHT22;62025;39.238;9.126;2023-11-21T05:05:07;16.10;76.90
63047;DHT22;62025;39.238;9.126;2023-11-21T05:07:33;16.10;77.00
63047;DHT22;62025;39.238;9.126;2023-11-21T05:10:01;16.20;77.00
63047;DHT22;62025;39.238;9.126;2023-11-21T05:12:31;16.10;77.00
63047;DHT22;62025;39.238;9.126;2023-11-21T05:15:06;16.10;77.10
63047;DHT22;62025;39.238;9.126;2023-11-21T05:17:36;16.20;77.30
63047;DHT22;62025;39.238;9.126;2023-11-21T05:20:03;16.10;77.20
63047;DHT22;62025;39.238;9.126;2023-11-21T05:22:34;16.20;77.10
63047;DHT22;62025;39.238;9.126;2023-11-21T05:25:00;16.20;77.10
63047;DHT22;62025;39.238;9.126;2023-11-21T05:27:26;16.20;77.20
63047;DHT22;62025;39.238;9.126;2023-11-21T05:29:52;16.20;77.30
63047;DHT22;62025;39.238;9.126;2023-11-21T05:32:18;16.10;77.40
63047;DHT22;62025;39.238;9.126;2023-11-21T05:34:44;16.20;77.20
63047;DHT22;62025;39.238;9.126;2023-11-21T05:37:09;16.10;77.30
63047;DHT22;62025;39.238;9.126;2023-11-21T05:39:35;16.10;77.20
63047;DHT22;62025;39.238;9.126;2023-11-21T05:42:01;16.10;77.10
63047;DHT22;62025;39.238;9.126;2023-11-21T05:44:27;16.10;77.20
63047;DHT22;62025;39.238;9.126;2023-11-21T05:46:53;16.10;77.20
63047;DHT22;62025;39.238;9.126;2023-11-21T05:49:19;16.10;77.30
63047;DHT22;62025;39.238;9.126;2023-11-21T05:51:48;16.20;77.30
63047;DHT22;62025;39.238;9.126;2023-11-21T05:54:13;16.20;77.20
63047;DHT22;62025;39.238;9.126;2023-11-21T05:56:39;16.20;77.40
63047;DHT22;62025;39.238;9.126;2023-11-21T05:59:05;16.20;77.50
63047;DHT22;62025;39.238;9.126;2023-11-21T06:01:32;16.20;77.70
63047;DHT22;62025;39.238;9.126;2023-11-21T06:03:58;16.10;78.00
63047;DHT22;62025;39.238;9.126;2023-11-21T06:06:24;16.10;78.00
63047;DHT22;62025;39.238;9.126;2023-11-21T06:08:51;16.20;78.20
63047;DHT22;62025;39.238;9.126;2023-11-21T06:11:17;16.20;78.20
63047;DHT22;62025;39.238;9.126;2023-11-21T06:13:44;16.10;78.40
63047;DHT22;62025;39.238;9.126;2023-11-21T06:16:09;16.20;78.60
63047;DHT22;62025;39.238;9.126;2023-11-21T06:18:35;16.20;78.50
63047;DHT22;62025;39.238;9.126;2023-11-21T06:21:01;16.20;78.60
63047;DHT22;62025;39.238;9.126;2023-11-21T06:23:27;16.30;78.50
63047;DHT22;62025;39.238;9.126;2023-11-21T06:25:53;16.30;78.60
63047;DHT22;62025;39.238;9.126;2023-11-21T06:28:19;16.30;78.60
63047;DHT22;62025;39.238;9.126;2023-11-21T06:30:45;16.20;78.50
63047;DHT22;62025;39.238;9.126;2023-11-21T06:33:10;16.20;78.50
63047;DHT22;62025;39.238;9.126;2023-11-21T06:35:36;16.20;78.70
63047;DHT22;62025;39.238;9.126;2023-11-21T06:38:02;16.20;78.70
63047;DHT22;62025;39.238;9.126;2023-11-21T06:40:28;16.20;79.00
63047;DHT22;62025;39.238;9.126;2023-11-21T06:42:54;16.20;79.00
63047;DHT22;62025;39.238;9.126;2023-11-21T06:45:20;16.20;78.90
63047;DHT22;62025;39.238;9.126;2023-11-21T06:47:47;16.30;78.80
63047;DHT22;62025;39.238;9.126;2023-11-21T06:50:13;16.30;78.80
63047;DHT22;62025;39.238;9.126;2023-11-21T06:52:39;16.20;78.90
63047;DHT22;62025;39.238;9.126;2023-11-21T06:55:05;16.20;79.00
63047;DHT22;62025;39.238;9.126;2023-11-21T06:57:33;16.30;78.90
63047;DHT22;62025;39.238;9.126;2023-11-21T06:59:59;16.30;78.80
63047;DHT22;62025;39.238;9.126;2023-11-21T07:02:25;16.30;78.60
63047;DHT22;62025;39.238;9.126;2023-11-21T07:04:51;16.40;78.40
63047;DHT22;62025;39.238;9.126;2023-11-21T07:07:18;16.40;78.40
63047;DHT22;62025;39.238;9.126;2023-11-21T07:09:44;16.50;78.30
63047;DHT22;62025;39.238;9.126;2023-11-21T07:12:10;16.40;78.40
63047;DHT22;62025;39.238;9.126;2023-11-21T07:14:37;16.50;78.50
63047;DHT22;62025;39.238;9.126;2023-11-21T07:17:04;16.50;78.50
63047;DHT22;62025;39.238;9.126;2023-11-21T07:19:30;16.50;78.40
63047;DHT22;62025;39.238;9.126;2023-11-21T07:21:56;16.40;78.40
63047;DHT22;62025;39.238;9.126;2023-11-21T07:24:22;16.50;78.70
63047;DHT22;62025;39.238;9.126;2023-11-21T07:26:50;16.50;78.80
63047;DHT22;62025;39.238;9.126;2023-11-21T07:29:16;16.70;78.40
63047;DHT22;62025;39.238;9.126;2023-11-21T07:31:42;16.90;78.20
63047;DHT22;62025;39.238;9.126;2023-11-21T07:34:08;17.10;77.70
63047;DHT22;62025;39.238;9.126;2023-11-21T07:36:34;17.10;77.40
63047;DHT22;62025;39.238;9.126;2023-11-21T07:39:00;17.00;77.60
63047;DHT22;62025;39.238;9.126;2023-11-21T07:41:27;17.20;77.40
63047;DHT22;62025;39.238;9.126;2023-11-21T07:43:55;18.10;75.60
63047;DHT22;62025;39.238;9.126;2023-11-21T07:46:21;18.80;73.20
63047;DHT22;62025;39.238;9.126;2023-11-21T07:48:47;19.30;71.10
63047;DHT22;62025;39.238;9.126;2023-11-21T07:51:13;19.70;69.60
63047;DHT22;62025;39.238;9.126;2023-11-21T07:53:39;20.00;68.30
63047;DHT22;62025;39.238;9.126;2023-11-21T07:56:07;20.30;67.10
63047;DHT22;62025;39.238;9.126;2023-11-21T07:58:36;20.50;66.20
63047;DHT22;62025;39.238;9.126;2023-11-21T08:01:03;20.70;65.70
63047;DHT22;62025;39.238;9.126;2023-11-21T08:03:29;20.30;66.40
63047;DHT22;62025;39.238;9.126;2023-11-21T08:05:59;20.10;67.40
63047;DHT22;62025;39.238;9.126;2023-11-21T08:08:25;19.80;68.10
63047;DHT22;62025;39.238;9.126;2023-11-21T08:10:52;19.50;68.80
63047;DHT22;62025;39.238;9.126;2023-11-21T08:13:25;19.40;69.40
63047;DHT22;62025;39.238;9.126;2023-11-21T08:15:54;19.40;69.50
63047;DHT22;62025;39.238;9.126;2023-11-21T08:18:20;19.50;69.80
63047;DHT22;62025;39.238;9.126;2023-11-21T08:20:46;19.60;69.40
63047;DHT22;62025;39.238;9.126;2023-11-21T08:23:15;19.90;69.00
63047;DHT22;62025;39.238;9.126;2023-11-21T08:25:44;20.40;67.70
63047;DHT22;62025;39.238;9.126;2023-11-21T08:28:10;20.80;66.30
63047;DHT22;62025;39.238;9.126;2023-11-21T08:30:38;21.00;65.50
63047;DHT22;62025;39.238;9.126;2023-11-21T08:33:04;21.70;63.70
63047;DHT22;62025;39.238;9.126;2023-11-21T08:35:31;22.10;62.10
63047;DHT22;62025;39.238;9.126;2023-11-21T08:37:56;22.40;60.90
63047;DHT22;62025;39.238;9.126;2023-11-21T08:40:22;22.20;60.90
63047;DHT22;62025;39.238;9.126;2023-11-21T08:42:49;21.90;61.50
63047;DHT22;62025;39.238;9.126;2023-11-21T08:45:17;21.40;62.80
63047;DHT22;62025;39.238;9.126;2023-11-21T08:47:43;21.20;63.60
63047;DHT22;62025;39.238;9.126;2023-11-21T08:50:10;21.20;63.70
63047;DHT22;62025;39.238;9.126;2023-11-21T08:52:39;21.20;63.90
63047;DHT22;62025;39.238;9.126;2023-11-21T08:55:06;21.10;64.10
63047;DHT22;62025;39.238;9.126;2023-11-21T08:57:37;20.90;64.40
63047;DHT22;62025;39.238;9.126;2023-11-21T09:00:03;20.80;64.90
63047;DHT22;62025;39.238;9.126;2023-11-21T09:02:35;20.50;65.60
63047;DHT22;62025;39.238;9.126;2023-11-21T09:05:04;20.30;66.70
63047;DHT22;62025;39.238;9.126;2023-11-21T09:07:30;20.10;67.60
63047;DHT22;62025;39.238;9.126;2023-11-21T09:09:56;19.90;68.20
63047;DHT22;62025;39.238;9.126;2023-11-21T09:12:22;19.80;69.00
63047;DHT22;62025;39.238;9.126;2023-11-21T09:14:47;19.60;69.10
63047;DHT22;62025;39.238;9.126;2023-11-21T09:17:15;19.60;69.60
63047;DHT22;62025;39.238;9.126;2023-11-21T09:19:41;19.50;69.60
63047;DHT22;62025;39.238;9.126;2023-11-21T09:22:07;19.40;69.90
63047;DHT22;62025;39.238;9.126;2023-11-21T09:24:33;19.80;69.50
63047;DHT22;62025;39.238;9.126;2023-11-21T09:27:00;19.90;68.50
63047;DHT22;62025;39.238;9.126;2023-11-21T09:29:28;19.90;68.70
63047;DHT22;62025;39.238;9.126;2023-11-21T09:31:55;19.80;68.80
63047;DHT22;62025;39.238;9.126;2023-11-21T09:34:22;20.20;68.10
63047;DHT22;62025;39.238;9.126;2023-11-21T09:36:48;20.60;66.60
63047;DHT22;62025;39.238;9.126;2023-11-21T09:39:14;20.60;66.20
63047;DHT22;62025;39.238;9.126;2023-11-21T09:41:51;20.60;66.20
63047;DHT22;62025;39.238;9.126;2023-11-21T09:44:35;20.60;65.80
63047;DHT22;62025;39.238;9.126;2023-11-21T09:47:03;20.40;66.10
63047;DHT22;62025;39.238;9.126;2023-11-21T09:49:28;20.40;66.30
63047;DHT22;62025;39.238;9.126;2023-11-21T09:52:01;20.30;66.30
63047;DHT22;62025;39.238;9.126;2023-11-21T09:54:31;20.40;66.20
63047;DHT22;62025;39.238;9.126;2023-11-21T09:57:00;20.40;65.60
63047;DHT22;62025;39.238;9.126;2023-11-21T09:59:30;20.40;65.00
63047;DHT22;62025;39.238;9.126;2023-11-21T10:01:58;20.30;65.20
63047;DHT22;62025;39.238;9.126;2023-11-21T10:04:24;20.20;66.30
63047;DHT22;62025;39.238;9.126;2023-11-21T10:06:53;20.30;66.20
63047;DHT22;62025;39.238;9.126;2023-11-21T10:09:19;20.40;65.70
63047;DHT22;62025;39.238;9.126;2023-11-21T10:11:47;20.50;65.30
63047;DHT22;62025;39.238;9.126;2023-11-21T10:14:16;20.70;64.70
63047;DHT22;62025;39.238;9.126;2023-11-21T10:16:45;20.90;63.40
63047;DHT22;62025;39.238;9.126;2023-11-21T10:19:13;21.30;62.50
63047;DHT22;62025;39.238;9.126;2023-11-21T10:21:39;21.50;61.60
63047;DHT22;62025;39.238;9.126;2023-11-21T10:24:05;21.60;61.10
63047;DHT22;62025;39.238;9.126;2023-11-21T10:26:32;21.60;60.90
63047;DHT22;62025;39.238;9.126;2023-11-21T10:29:00;21.40;61.20
63047;DHT22;62025;39.238;9.126;2023-11-21T10:31:32;21.30;61.70
63047;DHT22;62025;39.238;9.126;2023-11-21T10:34:17;20.90;62.50
63047;DHT22;62025;39.238;9.126;2023-11-21T10:36:44;20.90;62.50
63047;DHT22;62025;39.238;9.126;2023-11-21T10:39:20;20.70;62.90
63047;DHT22;62025;39.238;9.126;2023-11-21T10:41:49;20.60;63.10
63047;DHT22;62025;39.238;9.126;2023-11-21T10:44:17;20.60;63.20
63047;DHT22;62025;39.238;9.126;2023-11-21T10:46:48;20.80;63.00
63047;DHT22;62025;39.238;9.126;2023-11-21T10:49:20;20.90;62.20
63047;DHT22;62025;39.238;9.126;2023-11-21T10:51:46;21.10;61.90
63047;DHT22;62025;39.238;9.126;2023-11-21T10:54:20;21.20;61.50
63047;DHT22;62025;39.238;9.126;2023-11-21T10:56:49;21.10;61.20
63047;DHT22;62025;39.238;9.126;2023-11-21T10:59:17;21.20;61.10
63047;DHT22;62025;39.238;9.126;2023-11-21T11:01:45;21.10;60.90
63047;DHT22;62025;39.238;9.126;2023-11-21T11:04:14;21.20;60.80
63047;DHT22;62025;39.238;9.126;2023-11-21T11:06:54;21.10;60.70
63047;DHT22;62025;39.238;9.126;2023-11-21T11:09:22;21.10;60.60
63047;DHT22;62025;39.238;9.126;2023-11-21T11:11:48;20.90;60.60
63047;DHT22;62025;39.238;9.126;2023-11-21T11:14:14;20.70;61.60
63047;DHT22;62025;39.238;9.126;2023-11-21T11:16:41;20.60;61.50
63047;DHT22;62025;39.238;9.126;2023-11-21T11:19:09;20.50;61.70
63047;DHT22;62025;39.238;9.126;2023-11-21T11:28:03;20.40;61.20
63047;DHT22;62025;39.238;9.126;2023-11-21T11:31:01;20.60;61.50
63047;DHT22;62025;39.238;9.126;2023-11-21T11:33:53;20.50;61.00
63047;DHT22;62025;39.238;9.126;2023-11-21T11:36:24;20.40;60.60
63047;DHT22;62025;39.238;9.126;2023-11-21T11:38:51;20.40;60.40
63047;DHT22;62025;39.238;9.126;2023-11-21T11:41:25;20.50;59.90
63047;DHT22;62025;39.238;9.126;2023-11-21T11:43:56;20.50;58.80
63047;DHT22;62025;39.238;9.126;2023-11-21T11:46:43;20.40;58.30
63047;DHT22;62025;39.238;9.126;2023-11-21T11:49:32;20.30;57.50
63047;DHT22;62025;39.238;9.126;2023-11-21T11:52:37;20.40;57.70
63047;DHT22;62025;39.238;9.126;2023-11-21T11:55:10;20.30;58.70
63047;DHT22;62025;39.238;9.126;2023-11-21T11:57:36;20.30;58.20
63047;DHT22;62025;39.238;9.126;2023-11-21T12:00:18;20.20;58.20
63047;DHT22;62025;39.238;9.126;2023-11-21T12:02:54;20.10;58.50
63047;DHT22;62025;39.238;9.126;2023-11-21T12:05:21;20.00;58.50
63047;DHT22;62025;39.238;9.126;2023-11-21T12:07:55;19.90;60.50
63047;DHT22;62025;39.238;9.126;2023-11-21T12:10:23;19.80;61.80
63047;DHT22;62025;39.238;9.126;2023-11-21T12:15:22;19.40;62.80
63047;DHT22;62025;39.238;9.126;2023-11-21T12:17:49;19.50;62.90
63047;DHT22;62025;39.238;9.126;2023-11-21T12:20:18;19.40;62.60
63047;DHT22;62025;39.238;9.126;2023-11-21T12:22:48;19.40;62.60
63047;DHT22;62025;39.238;9.126;2023-11-21T12:25:26;19.40;62.60
63047;DHT22;62025;39.238;9.126;2023-11-21T12:27:58;19.40;62.60
63047;DHT22;62025;39.238;9.126;2023-11-21T12:30:27;19.30;62.70
63047;DHT22;62025;39.238;9.126;2023-11-21T12:32:58;19.40;62.70
63047;DHT22;62025;39.238;9.126;2023-11-21T12:35:26;19.30;62.20
63047;DHT22;62025;39.238;9.126;2023-11-21T12:37:54;19.30;62.00
63047;DHT22;62025;39.238;9.126;2023-11-21T12:40:20;19.20;61.50
63047;DHT22;62025;39.238;9.126;2023-11-21T12:42:53;19.10;61.00
63047;DHT22;62025;39.238;9.126;2023-11-21T12:47:47;19.20;61.00
63047;DHT22;62025;39.238;9.126;2023-11-21T12:50:21;19.30;60.30
63047;DHT22;62025;39.238;9.126;2023-11-21T12:52:52;19.10;59.60
63047;DHT22;62025;39.238;9.126;2023-11-21T12:55:23;19.00;59.60
63047;DHT22;62025;39.238;9.126;2023-11-21T12:57:52;19.00;59.40
63047;DHT22;62025;39.238;9.126;2023-11-21T13:00:27;19.00;58.80
63047;DHT22;62025;39.238;9.126;2023-11-21T13:02:54;19.00;58.40
63047;DHT22;62025;39.238;9.126;2023-11-21T13:05:32;18.90;58.30
63047;DHT22;62025;39.238;9.126;2023-11-21T13:08:00;18.90;58.00
63047;DHT22;62025;39.238;9.126;2023-11-21T13:10:31;19.00;57.80
63047;DHT22;62025;39.238;9.126;2023-11-21T13:13:02;19.00;57.60
63047;DHT22;62025;39.238;9.126;2023-11-21T13:15:31;19.00;57.40
63047;DHT22;62025;39.238;9.126;2023-11-21T13:17:58;19.00;57.80
63047;DHT22;62025;39.238;9.126;2023-11-21T13:20:25;19.00;57.70
63047;DHT22;62025;39.238;9.126;2023-11-21T13:22:54;18.90;57.90
63047;DHT22;62025;39.238;9.126;2023-11-21T13:25:23;18.90;57.80
63047;DHT22;62025;39.238;9.126;2023-11-21T13:27:50;18.90;57.10
63047;DHT22;62025;39.238;9.126;2023-11-21T13:30:17;18.90;56.70
63047;DHT22;62025;39.238;9.126;2023-11-21T13:32:49;18.90;56.40
63047;DHT22;62025;39.238;9.126;2023-11-21T13:35:18;18.80;56.00
63047;DHT22;62025;39.238;9.126;2023-11-21T13:37:51;18.80;55.90
63047;DHT22;62025;39.238;9.126;2023-11-21T13:40:22;18.80;56.00
63047;DHT22;62025;39.238;9.126;2023-11-21T13:42:55;18.80;56.30
63047;DHT22;62025;39.238;9.126;2023-11-21T13:45:25;18.80;56.30
63047;DHT22;62025;39.238;9.126;2023-11-21T13:47:54;18.90;56.60
63047;DHT22;62025;39.238;9.126;2023-11-21T13:50:24;18.90;57.90
63047;DHT22;62025;39.238;9.126;2023-11-21T13:52:56;18.90;58.10
63047;DHT22;62025;39.238;9.126;2023-11-21T13:55:22;18.90;58.30
63047;DHT22;62025;39.238;9.126;2023-11-21T13:57:50;18.90;57.80
63047;DHT22;62025;39.238;9.126;2023-11-21T14:00:18;18.90;57.80
63047;DHT22;62025;39.238;9.126;2023-11-21T14:03:03;18.80;58.30
63047;DHT22;62025;39.238;9.126;2023-11-21T14:05:34;18.80;58.70
63047;DHT22;62025;39.238;9.126;2023-11-21T14:08:00;18.80;59.20
63047;DHT22;62025;39.238;9.126;2023-11-21T14:10:31;18.70;59.60
63047;DHT22;62025;39.238;9.126;2023-11-21T14:13:09;18.70;59.60
63047;DHT22;62025;39.238;9.126;2023-11-21T14:15:41;18.50;59.80
63047;DHT22;62025;39.238;9.126;2023-11-21T14:18:11;18.50;60.10
63047;DHT22;62025;39.238;9.126;2023-11-21T14:20:40;18.50;60.70
63047;DHT22;62025;39.238;9.126;2023-11-21T14:23:06;18.40;61.10
63047;DHT22;62025;39.238;9.126;2023-11-21T14:25:34;18.30;61.20
63047;DHT22;62025;39.238;9.126;2023-11-21T14:28:00;18.40;61.40
63047;DHT22;62025;39.238;9.126;2023-11-21T14:30:26;18.40;61.40
63047;DHT22;62025;39.238;9.126;2023-11-21T14:32:54;18.40;61.60
63047;DHT22;62025;39.238;9.126;2023-11-21T14:35:20;18.30;61.90
63047;DHT22;62025;39.238;9.126;2023-11-21T14:37:46;18.20;62.30
63047;DHT22;62025;39.238;9.126;2023-11-21T14:40:12;18.20;62.50
63047;DHT22;62025;39.238;9.126;2023-11-21T14:42:42;18.20;62.80
63047;DHT22;62025;39.238;9.126;2023-11-21T14:45:10;18.10;63.00
63047;DHT22;62025;39.238;9.126;2023-11-21T14:47:37;18.00;63.00
63047;DHT22;62025;39.238;9.126;2023-11-21T14:50:09;18.00;63.00
63047;DHT22;62025;39.238;9.126;2023-11-21T14:52:54;17.90;62.40
63047;DHT22;62025;39.238;9.126;2023-11-21T14:55:25;17.90;62.70
63047;DHT22;62025;39.238;9.126;2023-11-21T14:58:10;17.90;62.80
63047;DHT22;62025;39.238;9.126;2023-11-21T15:00:41;17.80;63.80
63047;DHT22;62025;39.238;9.126;2023-11-21T15:03:10;17.80;64.60
63047;DHT22;62025;39.238;9.126;2023-11-21T15:05:47;17.80;65.10
63047;DHT22;62025;39.238;9.126;2023-11-21T15:08:14;17.80;64.80
63047;DHT22;62025;39.238;9.126;2023-11-21T15:10:52;17.70;65.40
63047;DHT22;62025;39.238;9.126;2023-11-21T15:13:21;17.60;65.70
63047;DHT22;62025;39.238;9.126;2023-11-21T15:15:51;17.60;65.80
63047;DHT22;62025;39.238;9.126;2023-11-21T15:18:20;17.50;66.40
63047;DHT22;62025;39.238;9.126;2023-11-21T15:20:46;17.60;66.90
63047;DHT22;62025;39.238;9.126;2023-11-21T15:23:12;17.50;66.90
63047;DHT22;62025;39.238;9.126;2023-11-21T15:25:39;17.50;67.20
63047;DHT22;62025;39.238;9.126;2023-11-21T15:28:04;17.50;67.30
63047;DHT22;62025;39.238;9.126;2023-11-21T15:30:31;17.40;67.40
63047;DHT22;62025;39.238;9.126;2023-11-21T15:32:59;17.50;67.60
63047;DHT22;62025;39.238;9.126;2023-11-21T15:35:25;17.50;67.80
63047;DHT22;62025;39.238;9.126;2023-11-21T15:37:53;17.60;67.80
63047;DHT22;62025;39.238;9.126;2023-11-21T15:40:19;17.60;67.90
63047;DHT22;62025;39.238;9.126;2023-11-21T15:42:45;17.60;68.20
63047;DHT22;62025;39.238;9.126;2023-11-21T15:45:11;17.60;68.90
63047;DHT22;62025;39.238;9.126;2023-11-21T15:47:37;17.60;69.10